Time;durP1;ratioP1;P1;durP2;ratioP2;P2;SDS_P1;SDS_P2;PMS_P1;PMS_P2;Temp;Humidity;BMP_temperature;BMP_pressure;BME280_temperature;BME280_humidity;BME280_pressure;Samples;Min_cycle;Max_cycle;Signal;HPM_P1;HPM_P2
2022/09/13 01:01:14;;;;;;;5.50;5.30;;;;;;;;;;6249825;22;20412;-94
2022/09/13 01:10:18;;;;;;;5.30;5.00;;;;;;;;;;6044276;23;20370;-94
2022/09/13 01:13:25;;;;;;;5.45;5.05;;;;;;;;;;5987158;24;20369;-95
2022/09/13 01:22:33;;;;;;;5.80;5.53;;;;;;;;;;6250358;22;20380;-93
2022/09/13 01:28:50;;;;;;;5.47;5.10;;;;;;;;;;6158726;23;20390;-94
2022/09/13 01:31:38;;;;;;;5.40;5.20;;;;;;;;;;6158777;23;20372;-94
2022/09/13 01:34:40;;;;;;;5.10;4.90;;;;;;;;;;6242131;23;20342;-94
2022/09/13 01:37:35;;;;;;;;;;;;;;;;;;;;;
2022/09/13 01:40:41;;;;;;;;;;;;;;;;;;;;;
2022/09/13 02:20:56;;;;;;;5.03;4.80;;;;;;;;;;6210508;23;20353;-94
2022/09/13 02:24:10;;;;;;;;;;;;;;;;;;;;;
2022/09/13 02:27:06;;;;;;;;;;;;;;;;;;;;;
2022/09/13 02:30:03;;;;;;;5.13;4.68;;;;;;;;;;6237522;23;20362;-94
2022/09/13 02:33:01;;;;;;;;;;;;;;;;;;;;;
2022/09/13 02:35:35;;;;;;;5.00;4.80;;;;;;;;;;6229856;23;20344;-95
2022/09/13 02:41:51;;;;;;;;;;;;;;;;;;;;;
2022/09/13 02:47:46;;;;;;;5.07;4.78;;;;;;;;;;6231863;23;20355;-95
2022/09/13 02:50:52;;;;;;;5.20;4.70;;;;;;;;;;6180768;22;20389;-95
2022/09/13 02:53:27;;;;;;;4.30;4.20;;;;;;;;;;6079062;23;20434;-94
2022/09/13 02:56:05;;;;;;;4.78;4.57;;;;;;;;;;6099085;23;20844;-93
2022/09/13 02:58:51;;;;;;;4.40;4.30;;;;;;;;;;6155485;23;20382;-96
2022/09/13 03:01:20;;;;;;;4.60;4.20;;;;;;;;;;6221540;23;20788;-95
2022/09/13 03:03:46;;;;;;;4.57;4.47;;;;;;;;;;6225766;23;20824;-93
2022/09/13 03:06:12;;;;;;;4.43;4.22;;;;;;;;;;6207384;23;20378;-95
2022/09/13 03:08:39;;;;;;;5.03;4.80;;;;;;;;;;6197690;23;20355;-92
2022/09/13 03:11:57;;;;;;;4.70;4.50;;;;;;;;;;6231275;22;20882;-94
2022/09/13 03:14:42;;;;;;;5.40;4.90;;;;;;;;;;6136281;23;20377;-94
2022/09/13 03:17:14;;;;;;;5.20;5.00;;;;;;;;;;6116043;23;20373;-95
2022/09/13 03:19:49;;;;;;;5.45;5.15;;;;;;;;;;6182330;23;20915;-95
2022/09/13 03:22:55;;;;;;;4.70;4.50;;;;;;;;;;6202721;23;20380;-93
2022/09/13 03:25:41;;;;;;;4.82;4.63;;;;;;;;;;6215874;23;20368;-93
2022/09/13 03:28:26;;;;;;;4.63;4.43;;;;;;;;;;6198215;23;20360;-91
2022/09/13 03:30:56;;;;;;;5.07;4.88;;;;;;;;;;6226575;23;20339;-91
2022/09/13 03:33:35;;;;;;;5.07;4.70;;;;;;;;;;6194482;23;20368;-96
2022/09/13 03:36:42;;;;;;;;;;;;;;;;;;;;;
2022/09/13 03:39:42;;;;;;;6.18;5.63;;;;;;;;;;6215117;23;20443;-94
2022/09/13 03:42:34;;;;;;;5.30;5.03;;;;;;;;;;6149338;23;20439;-94
2022/09/13 03:45:38;;;;;;;5.70;5.40;;;;;;;;;;6192481;23;20407;-94
2022/09/13 04:03:33;;;;;;;6.38;5.97;;;;;;;;;;6061489;23;20503;-93
2022/09/13 04:06:31;;;;;;;7.07;6.70;;;;;;;;;;6062929;23;20877;-93
2022/09/13 04:09:30;;;;;;;7.22;6.55;;;;;;;;;;6033869;23;20384;-93
2022/09/13 04:18:31;;;;;;;6.60;6.22;;;;;;;;;;6073977;23;20367;-95
2022/09/13 04:21:31;;;;;;;7.30;6.63;;;;;;;;;;6074251;23;20369;-94
2022/09/13 04:27:35;;;;;;;7.20;6.50;;;;;;;;;;6067840;23;20405;-93
2022/09/13 04:33:41;;;;;;;7.53;6.93;;;;;;;;;;6080630;23;21078;-92
2022/09/13 04:36:31;;;;;;;7.20;6.70;;;;;;;;;;6073031;23;20361;-93
2022/09/13 04:42:06;;;;;;;7.03;6.43;;;;;;;;;;6214787;22;20397;-92
2022/09/13 04:44:32;;;;;;;7.30;6.90;;;;;;;;;;6122920;23;20458;-91
2022/09/13 04:47:04;;;;;;;6.70;6.40;;;;;;;;;;6157734;23;20451;-93
2022/09/13 04:50:01;;;;;;;7.82;7.03;;;;;;;;;;6188668;23;20408;-92
2022/09/13 04:53:02;;;;;;;7.00;6.60;;;;;;;;;;6163143;23;20516;-92
2022/09/13 04:56:03;;;;;;;8.18;7.68;;;;;;;;;;6014711;23;20366;-92
2022/09/13 04:59:01;;;;;;;7.20;6.75;;;;;;;;;;5927419;24;20440;-91
2022/09/13 05:01:42;;;;;;;7.45;6.97;;;;;;;;;;5925630;24;20449;-92
2022/09/13 05:11:00;;;;;;;10.90;7.20;;;;;;;;;;6037021;23;20373;-92
2022/09/13 05:13:27;;;;;;;7.63;6.80;;;;;;;;;;6046762;23;20358;-90
2022/09/13 05:16:01;;;;;;;8.30;7.60;;;;;;;;;;6203085;23;20345;-91
2022/09/13 05:18:37;;;;;;;7.88;7.38;;;;;;;;;;6178593;23;20324;-92
2022/09/13 05:21:31;;;;;;;7.57;6.97;;;;;;;;;;6176622;23;20369;-92
2022/09/13 05:24:18;;;;;;;8.00;7.40;;;;;;;;;;6199700;23;20365;-92
2022/09/13 05:26:45;;;;;;;8.93;8.23;;;;;;;;;;6174002;23;20414;-91
2022/09/13 05:29:11;;;;;;;8.10;7.50;;;;;;;;;;6198807;23;20361;-91
2022/09/13 05:32:05;;;;;;;7.70;7.10;;;;;;;;;;6176453;23;20357;-91
2022/09/13 05:34:56;;;;;;;8.18;7.47;;;;;;;;;;6165887;23;20385;-92
2022/09/13 05:38:24;;;;;;;7.57;7.07;;;;;;;;;;6153079;23;20714;-92
2022/09/13 05:40:47;;;;;;;7.93;7.43;;;;;;;;;;6180137;23;20350;-91
2022/09/13 05:43:14;;;;;;;7.80;7.40;;;;;;;;;;6162219;23;20859;-91
2022/09/13 05:45:46;;;;;;;7.50;6.88;;;;;;;;;;6164693;23;20369;-91
2022/09/13 05:48:22;;;;;;;7.50;7.10;;;;;;;;;;6165458;23;20450;-93
2022/09/13 05:57:20;;;;;;;7.57;7.00;;;;;;;;;;6194239;23;20352;-92
2022/09/13 06:02:55;;;;;;;6.78;6.38;;;;;;;;;;6042745;23;20465;-94
2022/09/13 06:05:21;;;;;;;7.85;7.15;;;;;;;;;;6165440;23;20448;-94
2022/09/13 06:07:51;;;;;;;6.20;5.85;;;;;;;;;;6188081;23;20405;-94
2022/09/13 06:20:02;;;;;;;6.72;6.43;;;;;;;;;;6185098;23;20404;-95
2022/09/13 06:22:34;;;;;;;6.25;5.85;;;;;;;;;;6159604;23;20424;-94
2022/09/13 06:25:00;;;;;;;5.60;5.20;;;;;;;;;;6160522;23;20448;-93
2022/09/13 06:27:37;;;;;;;7.30;6.90;;;;;;;;;;6164757;23;20358;-94
2022/09/13 06:30:37;;;;;;;7.40;6.90;;;;;;;;;;6187214;23;20388;-93
2022/09/13 06:35:45;;;;;;;6.38;5.90;;;;;;;;;;6179014;22;20885;-93
2022/09/13 06:38:14;;;;;;;5.70;5.40;;;;;;;;;;6212520;23;20412;-92
2022/09/13 06:41:03;;;;;;;6.18;5.68;;;;;;;;;;6214994;23;20376;-94
2022/09/13 06:43:32;;;;;;;6.00;5.70;;;;;;;;;;6214972;23;20389;-93
2022/09/13 06:46:02;;;;;;;5.38;5.07;;;;;;;;;;6223129;23;20366;-88
2022/09/13 06:48:30;;;;;;;5.00;4.80;;;;;;;;;;6218741;23;20370;-95
2022/09/13 06:51:02;;;;;;;5.40;5.10;;;;;;;;;;6223919;23;20361;-94
2022/09/13 06:53:58;;;;;;;;;;;;;;;;;;;;;
2022/09/13 07:02:45;;;;;;;4.90;4.80;;;;;;;;;;6076011;23;20368;-93
2022/09/13 07:05:20;;;;;;;5.28;4.90;;;;;;;;;;6229160;23;20369;-93
2022/09/13 07:16:04;;;;;;;5.40;5.10;;;;;;;;;;6197964;23;20394;-90
2022/09/13 07:18:33;;;;;;;4.90;4.60;;;;;;;;;;6212662;23;20402;-92
2022/09/13 07:21:10;;;;;;;5.30;4.90;;;;;;;;;;6206605;23;20397;-93
2022/09/13 07:23:41;;;;;;;4.70;4.50;;;;;;;;;;6208686;23;20371;-93
2022/09/13 07:26:13;;;;;;;5.20;5.00;;;;;;;;;;6208296;23;20388;-94
2022/09/13 07:28:45;;;;;;;4.80;4.60;;;;;;;;;;6210086;23;20390;-90
2022/09/13 07:31:12;;;;;;;4.90;4.60;;;;;;;;;;6207578;23;20442;-94
2022/09/13 07:33:38;;;;;;;4.80;4.50;;;;;;;;;;6207347;23;20395;-92
2022/09/13 07:36:05;;;;;;;4.85;4.55;;;;;;;;;;6208306;23;20383;-92
2022/09/13 07:38:56;;;;;;;4.78;4.50;;;;;;;;;;6206657;23;20383;-95
2022/09/13 07:41:27;;;;;;;5.00;4.60;;;;;;;;;;6235033;23;20381;-92
2022/09/13 07:44:03;;;;;;;;;;;;;;;;;;;;;
2022/09/13 07:46:32;;;;;;;4.30;4.10;;;;;;;;;;6237668;23;20356;-91
2022/09/13 07:48:59;;;;;;;4.30;4.10;;;;;;;;;;6229759;23;20347;-92
2022/09/13 07:51:32;;;;;;;4.70;4.50;;;;;;;;;;6235381;23;20451;-95
2022/09/13 07:54:07;;;;;;;4.38;4.18;;;;;;;;;;6194338;23;20424;-93
2022/09/13 07:56:40;;;;;;;4.18;3.92;;;;;;;;;;6172102;23;20387;-93
2022/09/13 07:59:08;;;;;;;4.10;3.90;;;;;;;;;;6177788;23;20475;-94
2022/09/13 08:01:38;;;;;;;4.40;4.10;;;;;;;;;;6179032;23;20396;-94
2022/09/13 08:14:27;;;;;;;4.50;4.10;;;;;;;;;;6225673;23;20388;-91
2022/09/13 08:17:13;;;;;;;4.30;4.10;;;;;;;;;;6203665;23;20669;-93
2022/09/13 08:19:44;;;;;;;4.60;4.40;;;;;;;;;;6203124;23;20383;-89
2022/09/13 08:22:18;;;;;;;3.75;3.50;;;;;;;;;;6226151;23;20375;-91
2022/09/13 08:24:50;;;;;;;4.88;4.50;;;;;;;;;;6188396;23;20383;-89
2022/09/13 08:30:32;;;;;;;4.88;4.68;;;;;;;;;;6158913;23;20358;-91
2022/09/13 08:33:01;;;;;;;4.17;4.07;;;;;;;;;;6157515;23;20372;-92
2022/09/13 08:35:30;;;;;;;4.70;4.30;;;;;;;;;;6188822;23;20894;-92
2022/09/13 08:38:17;;;;;;;4.80;4.50;;;;;;;;;;6158105;23;20461;-91
2022/09/13 08:41:04;;;;;;;4.90;4.60;;;;;;;;;;6152033;23;20358;-93
2022/09/13 08:51:46;;;;;;;4.75;4.35;;;;;;;;;;6167434;23;20405;-87
2022/09/13 08:57:19;;;;;;;5.55;5.30;;;;;;;;;;6209378;22;20400;-88
2022/09/13 09:00:02;;;;;;;5.90;5.70;;;;;;;;;;6203992;23;20183;-92
2022/09/13 09:10:39;;;;;;;6.63;6.33;;;;;;;;;;6206614;22;20434;-91
2022/09/13 09:13:07;;;;;;;5.07;4.60;;;;;;;;;;6233487;23;20378;-87
2022/09/13 09:15:54;;;;;;;6.83;5.17;;;;;;;;;;6205704;23;20398;-91
2022/09/13 09:18:23;;;;;;;3.93;3.83;;;;;;;;;;6206782;23;20462;-91
2022/09/13 09:24:03;;;;;;;4.77;4.67;;;;;;;;;;6231228;23;20472;-92
2022/09/13 09:29:11;;;;;;;6.73;6.17;;;;;;;;;;6207366;22;20779;-92
2022/09/13 09:35:07;;;;;;;5.13;5.00;;;;;;;;;;6194877;22;20797;-92
2022/09/13 09:59:28;;;;;;;5.33;4.93;;;;;;;;;;6227824;22;20516;-92
2022/09/13 10:55:19;;;;;;;5.90;5.50;;;;;;;;;;6233139;22;20485;-92
2022/09/13 10:57:48;;;;;;;5.60;5.23;;;;;;;;;;6235664;22;20385;-91
2022/09/13 11:00:42;;;;;;;;;;;;;;;;;;;;;
2022/09/13 11:17:33;;;;;;;3.50;3.40;;;;;;;;;;6176083;23;20406;-93
2022/09/13 11:20:02;;;;;;;4.22;3.92;;;;;;;;;;6178685;23;20439;-89
2022/09/13 11:22:42;;;;;;;4.87;4.57;;;;;;;;;;6210583;22;20964;-92
2022/09/13 11:25:27;;;;;;;4.60;4.40;;;;;;;;;;6236488;23;20376;-93
2022/09/13 11:38:57;;;;;;;4.10;3.80;;;;;;;;;;6177663;23;20389;-94
2022/09/13 11:44:13;;;;;;;4.10;3.83;;;;;;;;;;6170090;23;20430;-96
2022/09/13 11:52:51;;;;;;;4.18;3.58;;;;;;;;;;6182558;23;20430;-95
2022/09/13 11:55:37;;;;;;;3.90;3.70;;;;;;;;;;6142076;23;20730;-94
2022/09/13 11:58:10;;;;;;;3.97;3.78;;;;;;;;;;6148961;23;20383;-91
2022/09/13 12:06:22;;;;;;;3.65;3.45;;;;;;;;;;6196939;23;20380;-88
2022/09/13 12:08:54;;;;;;;6.05;3.90;;;;;;;;;;6142337;22;20385;-92
2022/09/13 12:11:32;;;;;;;3.90;3.80;;;;;;;;;;6193813;23;20378;-90
2022/09/13 12:14:24;;;;;;;4.03;3.83;;;;;;;;;;6196229;23;20159;-94
2022/09/13 12:17:03;;;;;;;3.57;3.47;;;;;;;;;;6181816;23;20379;-91
2022/09/13 12:19:44;;;;;;;3.60;3.30;;;;;;;;;;6188468;23;20402;-90
2022/09/13 12:22:43;;;;;;;4.00;3.77;;;;;;;;;;6222129;23;20359;-93
2022/09/13 12:25:18;;;;;;;3.53;3.23;;;;;;;;;;6133342;23;20401;-91
2022/09/13 12:28:00;;;;;;;3.50;3.30;;;;;;;;;;6223058;23;20454;-93
2022/09/13 12:30:33;;;;;;;3.70;3.60;;;;;;;;;;6201297;23;20410;-93
2022/09/13 12:32:59;;;;;;;3.27;3.27;;;;;;;;;;6186755;23;20378;-92
2022/09/13 12:35:32;;;;;;;3.80;3.60;;;;;;;;;;6182275;23;20439;-94
2022/09/13 12:38:18;;;;;;;4.68;4.22;;;;;;;;;;6191416;23;20859;-93
2022/09/13 12:41:05;;;;;;;4.50;4.10;;;;;;;;;;6070681;23;20360;-94
2022/09/13 12:43:38;;;;;;;3.53;3.40;;;;;;;;;;6222488;23;20449;-95
2022/09/13 12:46:07;;;;;;;2.83;2.40;;;;;;;;;;6194197;23;20386;-92
2022/09/13 12:48:59;;;;;;;3.60;3.40;;;;;;;;;;6225992;23;20471;-90
2022/09/13 12:51:52;;;;;;;4.63;4.30;;;;;;;;;;6185153;23;20883;-92
2022/09/13 12:54:25;;;;;;;3.40;3.33;;;;;;;;;;6186703;23;20375;-85
2022/09/13 12:57:13;;;;;;;5.40;5.00;;;;;;;;;;6195602;23;20389;-94
2022/09/13 12:59:48;;;;;;;4.43;4.23;;;;;;;;;;6195450;23;20886;-91
2022/09/13 13:02:36;;;;;;;4.43;3.90;;;;;;;;;;6195107;23;20394;-91
2022/09/13 13:05:05;;;;;;;4.67;4.50;;;;;;;;;;6194288;23;20438;-93
2022/09/13 13:07:42;;;;;;;3.23;3.13;;;;;;;;;;6234961;23;20384;-95
2022/09/13 13:10:30;;;;;;;4.03;3.77;;;;;;;;;;6185443;23;20448;-91
2022/09/13 13:13:12;;;;;;;3.30;3.20;;;;;;;;;;6246925;22;20447;-93
2022/09/13 13:15:38;;;;;;;3.20;3.10;;;;;;;;;;6265600;22;20554;-92
2022/09/13 13:18:26;;;;;;;2.97;2.73;;;;;;;;;;6256097;23;20469;-92
2022/09/13 13:21:03;;;;;;;3.57;3.53;;;;;;;;;;6259782;23;20395;-93
2022/09/13 13:23:33;;;;;;;6.00;3.63;;;;;;;;;;6263228;23;20911;-94
2022/09/13 13:25:59;;;;;;;4.23;4.03;;;;;;;;;;6258200;23;20397;-91
2022/09/13 13:28:55;;;;;;;4.93;3.43;;;;;;;;;;6239734;22;20434;-91
2022/09/13 13:31:28;;;;;;;4.63;3.50;;;;;;;;;;6191103;23;20460;-91
2022/09/13 13:34:01;;;;;;;3.37;3.27;;;;;;;;;;6189729;23;20418;-89
2022/09/13 13:39:30;;;;;;;3.17;3.00;;;;;;;;;;6224955;23;20448;-94
2022/09/13 13:45:15;;;;;;;3.00;3.00;;;;;;;;;;6231421;22;20434;-92
2022/09/13 13:48:06;;;;;;;2.87;2.70;;;;;;;;;;6191948;23;20473;-92
2022/09/13 13:53:41;;;;;;;4.03;3.83;;;;;;;;;;6201441;23;20492;-91
2022/09/13 13:56:16;;;;;;;3.40;3.13;;;;;;;;;;6201944;23;20563;-91
2022/09/13 13:59:00;;;;;;;3.53;3.33;;;;;;;;;;6190230;23;20401;-92
2022/09/13 14:04:42;;;;;;;3.43;3.37;;;;;;;;;;6221663;23;20432;-92
2022/09/13 14:31:08;;;;;;;6.10;5.60;;;;;;;;;;6190732;23;20443;-90
2022/09/13 14:33:36;;;;;;;4.97;4.80;;;;;;;;;;6187461;23;20407;-92
2022/09/13 14:36:19;;;;;;;4.27;3.97;;;;;;;;;;6182391;23;20427;-90
2022/09/13 14:38:50;;;;;;;5.60;3.97;;;;;;;;;;6186087;23;20415;-92
2022/09/13 14:41:18;;;;;;;4.37;4.17;;;;;;;;;;6186914;23;20494;-91
2022/09/13 14:43:48;;;;;;;4.30;4.10;;;;;;;;;;6188487;23;20459;-92
2022/09/13 14:49:06;;;;;;;5.23;4.87;;;;;;;;;;6184268;23;20446;-91
2022/09/13 14:51:39;;;;;;;4.20;4.10;;;;;;;;;;6198499;23;20384;-91
2022/09/13 14:57:52;;;;;;;4.10;3.90;;;;;;;;;;6182144;23;20454;-90
2022/09/13 15:02:39;;;;;;;;;;;;;;;;;;;;;
2022/09/13 15:05:13;;;;;;;4.00;3.90;;;;;;;;;;6202146;22;20498;-90
2022/09/13 15:07:52;;;;;;;5.33;4.17;;;;;;;;;;6199517;23;20710;-88
2022/09/13 15:10:18;;;;;;;4.37;4.27;;;;;;;;;;6184815;23;20375;-88
2022/09/13 15:12:57;;;;;;;4.03;3.93;;;;;;;;;;6185605;23;20388;-88
2022/09/13 15:15:25;;;;;;;4.23;4.13;;;;;;;;;;6183498;23;20391;-89
2022/09/13 15:17:56;;;;;;;5.70;5.50;;;;;;;;;;6188430;23;20487;-89
2022/09/13 15:20:22;;;;;;;4.63;4.50;;;;;;;;;;6180259;23;20402;-90
2022/09/13 15:23:12;;;;;;;6.70;5.50;;;;;;;;;;6191003;23;20356;-93
2022/09/13 15:26:09;;;;;;;5.20;5.00;;;;;;;;;;6154136;23;20395;-92
2022/09/13 15:29:14;;;;;;;5.03;4.93;;;;;;;;;;6194723;23;20375;-91
2022/09/13 15:35:10;;;;;;;5.90;5.70;;;;;;;;;;6165681;23;20429;-92
2022/09/13 15:37:43;;;;;;;6.87;6.57;;;;;;;;;;6132856;23;20395;-94
2022/09/13 15:40:17;;;;;;;5.93;5.43;;;;;;;;;;6152697;23;20451;-93
2022/09/13 15:45:55;;;;;;;5.27;5.00;;;;;;;;;;6214081;23;20522;-93
2022/09/13 15:48:53;;;;;;;6.20;5.70;;;;;;;;;;6187879;23;20415;-95
2022/09/13 15:51:24;;;;;;;6.27;5.83;;;;;;;;;;6020048;23;20413;-96
2022/09/13 15:53:51;;;;;;;5.27;5.07;;;;;;;;;;6044150;23;20368;-89
2022/09/13 15:56:22;;;;;;;5.43;5.23;;;;;;;;;;6137723;23;20434;-95
2022/09/13 15:59:14;;;;;;;6.50;6.00;;;;;;;;;;6161499;23;20424;-95
2022/09/13 16:01:41;;;;;;;6.60;6.13;;;;;;;;;;6164655;23;20455;-94
2022/09/13 16:04:07;;;;;;;6.30;6.00;;;;;;;;;;6156863;23;20501;-92
2022/09/13 16:06:34;;;;;;;5.57;5.37;;;;;;;;;;6187354;23;20367;-89
2022/09/13 16:09:26;;;;;;;6.77;6.47;;;;;;;;;;6162499;23;20391;-92
2022/09/13 16:12:17;;;;;;;7.00;6.60;;;;;;;;;;6158057;23;20418;-92
2022/09/13 16:14:44;;;;;;;6.47;5.90;;;;;;;;;;6141801;23;20376;-91
2022/09/13 16:17:11;;;;;;;7.43;7.03;;;;;;;;;;6156932;23;21110;-84
2022/09/13 16:19:38;;;;;;;8.33;7.70;;;;;;;;;;6184365;23;20755;-92
2022/09/13 16:22:04;;;;;;;9.17;7.40;;;;;;;;;;6157117;23;20394;-91
2022/09/13 16:24:30;;;;;;;7.27;6.97;;;;;;;;;;6158671;23;20907;-91
2022/09/13 16:30:29;;;;;;;11.50;10.60;;;;;;;;;;6142219;23;20553;-91
2022/09/13 16:38:13;;;;;;;6.80;6.43;;;;;;;;;;6214170;22;20436;-91
2022/09/13 16:43:32;;;;;;;;;;;;;;;;;;;;;
2022/09/13 16:49:11;;;;;;;8.37;7.60;;;;;;;;;;6167914;23;20465;-92
2022/09/13 16:54:51;;;;;;;;;;;;;;;;;;;;;
2022/09/13 16:57:27;;;;;;;8.00;7.50;;;;;;;;;;6055757;23;20486;-93
2022/09/13 17:02:29;;;;;;;8.70;8.00;;;;;;;;;;6178304;22;20513;-94
2022/09/13 17:05:04;;;;;;;7.70;7.10;;;;;;;;;;6169920;23;20435;-94
2022/09/13 17:08:00;;;;;;;9.03;8.27;;;;;;;;;;6163143;23;20401;-95
2022/09/13 17:10:32;;;;;;;8.50;7.87;;;;;;;;;;6193318;23;20386;-94
2022/09/13 17:13:01;;;;;;;7.30;6.87;;;;;;;;;;6168647;23;20406;-92
2022/09/13 17:15:27;;;;;;;8.27;7.43;;;;;;;;;;6166828;23;20392;-95
2022/09/13 17:17:54;;;;;;;8.10;7.60;;;;;;;;;;6196329;23;20379;-94
2022/09/13 17:20:45;;;;;;;7.80;7.27;;;;;;;;;;6170130;23;20391;-91
2022/09/13 17:23:12;;;;;;;9.33;8.50;;;;;;;;;;6160804;23;20423;-90
2022/09/13 17:26:04;;;;;;;9.17;8.47;;;;;;;;;;6203720;23;20383;-95
2022/09/13 17:28:59;;;;;;;8.17;7.67;;;;;;;;;;6171700;23;20382;-93
2022/09/13 17:32:00;;;;;;;8.07;7.40;;;;;;;;;;6175258;23;20388;-93
2022/09/13 17:37:58;;;;;;;8.40;7.70;;;;;;;;;;6101270;23;20451;-93
2022/09/13 17:40:59;;;;;;;7.27;6.97;;;;;;;;;;6232589;23;20379;-94
2022/09/13 17:43:28;;;;;;;9.23;8.60;;;;;;;;;;6181203;23;20448;-92
2022/09/13 17:45:57;;;;;;;7.90;7.23;;;;;;;;;;6197828;23;20497;-95
2022/09/13 17:48:26;;;;;;;8.33;7.63;;;;;;;;;;6196371;23;20909;-93
2022/09/13 18:01:59;;;;;;;10.77;10.00;;;;;;;;;;6159421;23;20444;-95
2022/09/13 18:04:41;;;;;;;10.33;9.73;;;;;;;;;;6162983;23;20435;-95
2022/09/13 18:07:09;;;;;;;8.90;8.40;;;;;;;;;;6137437;23;20721;-93
2022/09/13 18:09:40;;;;;;;8.33;7.70;;;;;;;;;;6166169;23;20395;-94
2022/09/13 18:12:15;;;;;;;11.00;9.77;;;;;;;;;;6172619;23;20410;-96
2022/09/13 18:14:54;;;;;;;12.17;11.27;;;;;;;;;;6174331;23;20384;-94
2022/09/13 18:17:23;;;;;;;12.03;11.07;;;;;;;;;;6124269;23;20424;-93
2022/09/13 18:20:06;;;;;;;13.47;10.77;;;;;;;;;;6148255;23;20436;-96
2022/09/13 18:22:50;;;;;;;11.73;10.63;;;;;;;;;;6148555;23;20388;-94
2022/09/13 18:48:21;;;;;;;7.53;7.03;;;;;;;;;;6182397;22;20462;-93
2022/09/13 18:50:50;;;;;;;7.20;6.60;;;;;;;;;;6208429;23;20406;-96
2022/09/13 18:53:42;;;;;;;7.77;6.70;;;;;;;;;;6205099;23;20387;-94
2022/09/13 18:56:15;;;;;;;8.37;7.90;;;;;;;;;;6208994;23;20504;-96
2022/09/13 18:58:53;;;;;;;9.63;8.67;;;;;;;;;;6209767;23;20406;-94
2022/09/13 19:01:36;;;;;;;8.20;7.70;;;;;;;;;;6206704;23;20383;-94
2022/09/13 19:11:53;;;;;;;8.37;7.53;;;;;;;;;;6168730;23;20525;-91
